sensor_id;sensor_type;location;lat;lon;timestamp;P1;durP1;ratioP1;P2;durP2;ratioP2
56511;SDS011;42408;53.238;5.686;2024-03-22T00:00:32;57.97;;;34.77;;
56511;SDS011;42408;53.238;5.686;2024-03-22T00:02:58;57.20;;;35.07;;
56511;SDS011;42408;53.238;5.686;2024-03-22T00:05:23;61.20;;;37.30;;
56511;SDS011;42408;53.238;5.686;2024-03-22T00:07:49;62.53;;;36.00;;
56511;SDS011;42408;53.238;5.686;2024-03-22T00:10:15;61.27;;;37.60;;
56511;SDS011;42408;53.238;5.686;2024-03-22T00:12:40;60.77;;;36.53;;
56511;SDS011;42408;53.238;5.686;2024-03-22T00:15:06;61.23;;;36.47;;
56511;SDS011;42408;53.238;5.686;2024-03-22T00:17:32;61.97;;;36.97;;
56511;SDS011;42408;53.238;5.686;2024-03-22T00:19:58;63.70;;;37.07;;
56511;SDS011;42408;53.238;5.686;2024-03-22T00:22:25;62.78;;;38.20;;
56511;SDS011;42408;53.238;5.686;2024-03-22T00:24:50;70.17;;;35.87;;
56511;SDS011;42408;53.238;5.686;2024-03-22T00:27:16;69.30;;;38.23;;
56511;SDS011;42408;53.238;5.686;2024-03-22T00:29:42;60.93;;;35.37;;
56511;SDS011;42408;53.238;5.686;2024-03-22T00:32:07;72.77;;;38.80;;
56511;SDS011;42408;53.238;5.686;2024-03-22T00:34:34;71.33;;;37.50;;
56511;SDS011;42408;53.238;5.686;2024-03-22T00:36:59;67.65;;;36.88;;
56511;SDS011;42408;53.238;5.686;2024-03-22T00:39:25;76.77;;;38.07;;
56511;SDS011;42408;53.238;5.686;2024-03-22T00:41:51;68.30;;;35.97;;
56511;SDS011;42408;53.238;5.686;2024-03-22T00:44:16;68.33;;;38.87;;
56511;SDS011;42408;53.238;5.686;2024-03-22T00:46:42;72.43;;;38.47;;
56511;SDS011;42408;53.238;5.686;2024-03-22T00:49:08;67.37;;;36.60;;
56511;SDS011;42408;53.238;5.686;2024-03-22T00:51:33;68.57;;;36.23;;
56511;SDS011;42408;53.238;5.686;2024-03-22T00:53:59;69.33;;;36.40;;
56511;SDS011;42408;53.238;5.686;2024-03-22T00:56:24;69.57;;;37.33;;
56511;SDS011;42408;53.238;5.686;2024-03-22T00:58:50;72.23;;;38.53;;
56511;SDS011;42408;53.238;5.686;2024-03-22T01:01:16;68.10;;;36.97;;
56511;SDS011;42408;53.238;5.686;2024-03-22T01:03:41;68.43;;;35.53;;
56511;SDS011;42408;53.238;5.686;2024-03-22T01:06:07;74.13;;;36.47;;
56511;SDS011;42408;53.238;5.686;2024-03-22T01:08:33;73.05;;;36.58;;
56511;SDS011;42408;53.238;5.686;2024-03-22T01:10:59;70.23;;;37.00;;
56511;SDS011;42408;53.238;5.686;2024-03-22T01:13:24;66.20;;;34.33;;
56511;SDS011;42408;53.238;5.686;2024-03-22T01:15:50;68.00;;;36.47;;
56511;SDS011;42408;53.238;5.686;2024-03-22T01:18:16;67.37;;;35.40;;
56511;SDS011;42408;53.238;5.686;2024-03-22T01:20:41;67.00;;;35.70;;
56511;SDS011;42408;53.238;5.686;2024-03-22T01:23:08;62.25;;;33.22;;
56511;SDS011;42408;53.238;5.686;2024-03-22T01:25:33;63.30;;;33.33;;
56511;SDS011;42408;53.238;5.686;2024-03-22T01:27:59;61.40;;;33.40;;
56511;SDS011;42408;53.238;5.686;2024-03-22T01:30:24;63.10;;;31.97;;
56511;SDS011;42408;53.238;5.686;2024-03-22T01:32:53;64.15;;;32.65;;
56511;SDS011;42408;53.238;5.686;2024-03-22T01:35:19;55.15;;;30.10;;
56511;SDS011;42408;53.238;5.686;2024-03-22T01:37:45;64.83;;;33.23;;
56511;SDS011;42408;53.238;5.686;2024-03-22T01:40:11;65.20;;;32.37;;
56511;SDS011;42408;53.238;5.686;2024-03-22T01:42:37;58.33;;;31.83;;
56511;SDS011;42408;53.238;5.686;2024-03-22T01:45:03;63.10;;;30.97;;
56511;SDS011;42408;53.238;5.686;2024-03-22T01:47:29;59.88;;;32.28;;
56511;SDS011;42408;53.238;5.686;2024-03-22T01:49:55;63.20;;;32.07;;
56511;SDS011;42408;53.238;5.686;2024-03-22T01:52:22;59.17;;;31.10;;
56511;SDS011;42408;53.238;5.686;2024-03-22T01:54:48;58.93;;;31.23;;
56511;SDS011;42408;53.238;5.686;2024-03-22T01:57:14;65.55;;;33.50;;
56511;SDS011;42408;53.238;5.686;2024-03-22T01:59:40;55.50;;;34.20;;
56511;SDS011;42408;53.238;5.686;2024-03-22T02:02:06;66.32;;;34.13;;
56511;SDS011;42408;53.238;5.686;2024-03-22T02:04:32;63.47;;;32.80;;
56511;SDS011;42408;53.238;5.686;2024-03-22T02:06:57;61.53;;;32.57;;
56511;SDS011;42408;53.238;5.686;2024-03-22T02:09:23;57.40;;;33.50;;
56511;SDS011;42408;53.238;5.686;2024-03-22T02:11:49;63.30;;;32.38;;
56511;SDS011;42408;53.238;5.686;2024-03-22T02:14:16;62.00;;;32.47;;
56511;SDS011;42408;53.238;5.686;2024-03-22T02:16:41;59.37;;;33.50;;
56511;SDS011;42408;53.238;5.686;2024-03-22T02:19:07;63.30;;;32.70;;
56511;SDS011;42408;53.238;5.686;2024-03-22T02:21:33;67.53;;;32.95;;
56511;SDS011;42408;53.238;5.686;2024-03-22T02:23:59;68.10;;;32.30;;
56511;SDS011;42408;53.238;5.686;2024-03-22T02:26:25;60.00;;;32.07;;
56511;SDS011;42408;53.238;5.686;2024-03-22T02:28:50;70.50;;;33.43;;
56511;SDS011;42408;53.238;5.686;2024-03-22T02:31:16;64.37;;;33.40;;
56511;SDS011;42408;53.238;5.686;2024-03-22T02:33:42;63.13;;;32.97;;
56511;SDS011;42408;53.238;5.686;2024-03-22T02:36:08;59.33;;;31.27;;
56511;SDS011;42408;53.238;5.686;2024-03-22T02:38:34;62.47;;;30.75;;
56511;SDS011;42408;53.238;5.686;2024-03-22T02:40:59;60.80;;;31.20;;
56511;SDS011;42408;53.238;5.686;2024-03-22T02:43:25;57.90;;;32.20;;
56511;SDS011;42408;53.238;5.686;2024-03-22T02:45:50;59.97;;;30.10;;
56511;SDS011;42408;53.238;5.686;2024-03-22T02:48:16;69.47;;;33.53;;
56511;SDS011;42408;53.238;5.686;2024-03-22T02:50:42;59.47;;;29.67;;
56511;SDS011;42408;53.238;5.686;2024-03-22T02:53:07;58.83;;;30.60;;
56511;SDS011;42408;53.238;5.686;2024-03-22T02:55:39;65.13;;;31.33;;
56511;SDS011;42408;53.238;5.686;2024-03-22T02:58:06;57.00;;;30.92;;
56511;SDS011;42408;53.238;5.686;2024-03-22T03:00:35;60.70;;;31.58;;
56511;SDS011;42408;53.238;5.686;2024-03-22T03:03:04;57.85;;;31.60;;
56511;SDS011;42408;53.238;5.686;2024-03-22T03:05:30;58.50;;;31.42;;
56511;SDS011;42408;53.238;5.686;2024-03-22T03:07:56;57.83;;;31.13;;
56511;SDS011;42408;53.238;5.686;2024-03-22T03:10:22;57.23;;;29.53;;
56511;SDS011;42408;53.238;5.686;2024-03-22T03:12:47;58.77;;;30.87;;
56511;SDS011;42408;53.238;5.686;2024-03-22T03:15:13;56.77;;;30.27;;
56511;SDS011;42408;53.238;5.686;2024-03-22T03:17:39;50.13;;;29.77;;
56511;SDS011;42408;53.238;5.686;2024-03-22T03:20:05;66.23;;;30.77;;
56511;SDS011;42408;53.238;5.686;2024-03-22T03:22:33;59.30;;;32.13;;
56511;SDS011;42408;53.238;5.686;2024-03-22T03:24:59;59.75;;;29.75;;
56511;SDS011;42408;53.238;5.686;2024-03-22T03:27:25;57.10;;;28.10;;
56511;SDS011;42408;53.238;5.686;2024-03-22T03:29:52;62.00;;;29.10;;
56511;SDS011;42408;53.238;5.686;2024-03-22T03:32:17;54.73;;;27.23;;
56511;SDS011;42408;53.238;5.686;2024-03-22T03:34:43;55.70;;;30.13;;
56511;SDS011;42408;53.238;5.686;2024-03-22T03:37:09;56.40;;;29.03;;
56511;SDS011;42408;53.238;5.686;2024-03-22T03:39:34;49.97;;;26.77;;
56511;SDS011;42408;53.238;5.686;2024-03-22T03:42:00;50.87;;;27.37;;
56511;SDS011;42408;53.238;5.686;2024-03-22T03:44:25;57.73;;;27.83;;
56511;SDS011;42408;53.238;5.686;2024-03-22T03:46:51;50.95;;;25.17;;
56511;SDS011;42408;53.238;5.686;2024-03-22T03:49:17;59.13;;;25.53;;
56511;SDS011;42408;53.238;5.686;2024-03-22T03:51:43;54.60;;;25.37;;
56511;SDS011;42408;53.238;5.686;2024-03-22T03:54:08;55.83;;;26.07;;
56511;SDS011;42408;53.238;5.686;2024-03-22T03:56:34;50.47;;;25.67;;
56511;SDS011;42408;53.238;5.686;2024-03-22T03:58:59;45.13;;;25.10;;
56511;SDS011;42408;53.238;5.686;2024-03-22T04:01:25;46.97;;;23.03;;
56511;SDS011;42408;53.238;5.686;2024-03-22T04:03:51;48.13;;;24.63;;
56511;SDS011;42408;53.238;5.686;2024-03-22T04:06:16;42.87;;;23.30;;
56511;SDS011;42408;53.238;5.686;2024-03-22T04:08:42;44.77;;;25.00;;
56511;SDS011;42408;53.238;5.686;2024-03-22T04:13:34;39.42;;;20.40;;
56511;SDS011;42408;53.238;5.686;2024-03-22T04:16:00;45.97;;;22.03;;
56511;SDS011;42408;53.238;5.686;2024-03-22T04:18:25;44.70;;;21.40;;
56511;SDS011;42408;53.238;5.686;2024-03-22T04:20:55;43.50;;;21.63;;
56511;SDS011;42408;53.238;5.686;2024-03-22T04:23:22;50.17;;;21.80;;
56511;SDS011;42408;53.238;5.686;2024-03-22T04:28:24;42.45;;;20.35;;
56511;SDS011;42408;53.238;5.686;2024-03-22T04:30:54;42.28;;;20.75;;
56511;SDS011;42408;53.238;5.686;2024-03-22T04:33:24;40.92;;;20.42;;
56511;SDS011;42408;53.238;5.686;2024-03-22T04:35:49;34.27;;;18.77;;
56511;SDS011;42408;53.238;5.686;2024-03-22T04:38:15;36.43;;;18.30;;
56511;SDS011;42408;53.238;5.686;2024-03-22T04:40:41;43.37;;;18.93;;
56511;SDS011;42408;53.238;5.686;2024-03-22T04:43:07;43.87;;;18.80;;
56511;SDS011;42408;53.238;5.686;2024-03-22T04:45:33;38.85;;;17.67;;
56511;SDS011;42408;53.238;5.686;2024-03-22T04:48:00;42.23;;;19.80;;
56511;SDS011;42408;53.238;5.686;2024-03-22T04:50:26;45.45;;;18.73;;
56511;SDS011;42408;53.238;5.686;2024-03-22T04:52:52;46.37;;;19.87;;
56511;SDS011;42408;53.238;5.686;2024-03-22T04:55:18;38.93;;;17.93;;
56511;SDS011;42408;53.238;5.686;2024-03-22T04:57:43;35.47;;;17.33;;
56511;SDS011;42408;53.238;5.686;2024-03-22T05:00:09;40.13;;;17.80;;
56511;SDS011;42408;53.238;5.686;2024-03-22T05:02:35;36.88;;;18.02;;
56511;SDS011;42408;53.238;5.686;2024-03-22T05:05:01;36.30;;;17.63;;
56511;SDS011;42408;53.238;5.686;2024-03-22T05:07:26;42.87;;;17.40;;
56511;SDS011;42408;53.238;5.686;2024-03-22T05:09:52;37.77;;;18.23;;
56511;SDS011;42408;53.238;5.686;2024-03-22T05:12:18;36.20;;;17.17;;
56511;SDS011;42408;53.238;5.686;2024-03-22T05:14:43;33.97;;;17.20;;
56511;SDS011;42408;53.238;5.686;2024-03-22T05:17:09;42.20;;;16.53;;
56511;SDS011;42408;53.238;5.686;2024-03-22T05:19:34;39.00;;;17.43;;
56511;SDS011;42408;53.238;5.686;2024-03-22T05:22:00;32.90;;;16.67;;
56511;SDS011;42408;53.238;5.686;2024-03-22T05:24:26;32.33;;;16.27;;
56511;SDS011;42408;53.238;5.686;2024-03-22T05:26:52;40.10;;;17.00;;
56511;SDS011;42408;53.238;5.686;2024-03-22T05:29:18;32.67;;;16.50;;
56511;SDS011;42408;53.238;5.686;2024-03-22T05:31:48;32.23;;;16.83;;
56511;SDS011;42408;53.238;5.686;2024-03-22T05:34:16;36.45;;;17.02;;
56511;SDS011;42408;53.238;5.686;2024-03-22T05:36:42;30.93;;;17.47;;
56511;SDS011;42408;53.238;5.686;2024-03-22T05:39:08;38.53;;;18.03;;
56511;SDS011;42408;53.238;5.686;2024-03-22T05:41:35;42.30;;;17.27;;
56511;SDS011;42408;53.238;5.686;2024-03-22T05:44:01;36.50;;;18.03;;
56511;SDS011;42408;53.238;5.686;2024-03-22T05:46:28;38.17;;;18.83;;
56511;SDS011;42408;53.238;5.686;2024-03-22T05:48:57;33.13;;;17.08;;
56511;SDS011;42408;53.238;5.686;2024-03-22T05:53:49;34.45;;;18.13;;
56511;SDS011;42408;53.238;5.686;2024-03-22T05:56:15;41.23;;;18.30;;
56511;SDS011;42408;53.238;5.686;2024-03-22T05:58:40;35.13;;;16.63;;
56511;SDS011;42408;53.238;5.686;2024-03-22T06:01:06;32.10;;;17.57;;
56511;SDS011;42408;53.238;5.686;2024-03-22T06:03:32;33.13;;;16.70;;
56511;SDS011;42408;53.238;5.686;2024-03-22T06:06:00;31.47;;;17.20;;
56511;SDS011;42408;53.238;5.686;2024-03-22T06:08:26;35.58;;;16.73;;
56511;SDS011;42408;53.238;5.686;2024-03-22T06:10:52;31.43;;;15.53;;
56511;SDS011;42408;53.238;5.686;2024-03-22T06:13:19;31.13;;;17.13;;
56511;SDS011;42408;53.238;5.686;2024-03-22T06:15:46;34.80;;;18.87;;
56511;SDS011;42408;53.238;5.686;2024-03-22T06:18:14;28.92;;;17.50;;
56511;SDS011;42408;53.238;5.686;2024-03-22T06:20:40;31.77;;;17.50;;
56511;SDS011;42408;53.238;5.686;2024-03-22T06:23:07;38.50;;;17.90;;
56511;SDS011;42408;53.238;5.686;2024-03-22T06:25:33;35.95;;;19.00;;
56511;SDS011;42408;53.238;5.686;2024-03-22T06:27:59;37.38;;;18.55;;
56511;SDS011;42408;53.238;5.686;2024-03-22T06:30:24;44.63;;;21.07;;
56511;SDS011;42408;53.238;5.686;2024-03-22T06:32:50;39.47;;;19.33;;
56511;SDS011;42408;53.238;5.686;2024-03-22T06:35:16;34.40;;;20.03;;
56511;SDS011;42408;53.238;5.686;2024-03-22T06:37:41;39.77;;;18.80;;
56511;SDS011;42408;53.238;5.686;2024-03-22T06:40:07;34.07;;;18.90;;
56511;SDS011;42408;53.238;5.686;2024-03-22T06:42:33;35.42;;;18.92;;
56511;SDS011;42408;53.238;5.686;2024-03-22T06:44:59;37.57;;;20.33;;
56511;SDS011;42408;53.238;5.686;2024-03-22T06:47:24;31.60;;;18.13;;
56511;SDS011;42408;53.238;5.686;2024-03-22T06:49:50;33.97;;;18.63;;
56511;SDS011;42408;53.238;5.686;2024-03-22T06:52:16;37.93;;;19.23;;
56511;SDS011;42408;53.238;5.686;2024-03-22T06:54:43;41.20;;;20.63;;
56511;SDS011;42408;53.238;5.686;2024-03-22T06:57:09;39.20;;;20.03;;
56511;SDS011;42408;53.238;5.686;2024-03-22T06:59:34;28.67;;;18.37;;
56511;SDS011;42408;53.238;5.686;2024-03-22T07:02:00;39.83;;;19.40;;
56511;SDS011;42408;53.238;5.686;2024-03-22T07:04:25;30.33;;;18.23;;
56511;SDS011;42408;53.238;5.686;2024-03-22T07:06:51;36.47;;;20.07;;
56511;SDS011;42408;53.238;5.686;2024-03-22T07:09:17;31.67;;;19.07;;
56511;SDS011;42408;53.238;5.686;2024-03-22T07:11:43;37.10;;;19.20;;
56511;SDS011;42408;53.238;5.686;2024-03-22T07:14:08;30.63;;;19.15;;
56511;SDS011;42408;53.238;5.686;2024-03-22T07:16:34;28.60;;;17.80;;
56511;SDS011;42408;53.238;5.686;2024-03-22T07:19:02;32.75;;;17.95;;
56511;SDS011;42408;53.238;5.686;2024-03-22T07:21:28;33.92;;;18.50;;
56511;SDS011;42408;53.238;5.686;2024-03-22T07:23:54;28.23;;;16.50;;
56511;SDS011;42408;53.238;5.686;2024-03-22T07:26:20;32.80;;;17.10;;
56511;SDS011;42408;53.238;5.686;2024-03-22T07:28:45;32.57;;;17.13;;
56511;SDS011;42408;53.238;5.686;2024-03-22T07:31:11;27.50;;;16.13;;
56511;SDS011;42408;53.238;5.686;2024-03-22T07:33:37;27.83;;;15.47;;
56511;SDS011;42408;53.238;5.686;2024-03-22T07:36:04;33.65;;;16.83;;
56511;SDS011;42408;53.238;5.686;2024-03-22T07:38:30;26.42;;;15.90;;
56511;SDS011;42408;53.238;5.686;2024-03-22T07:40:56;24.37;;;14.87;;
56511;SDS011;42408;53.238;5.686;2024-03-22T07:43:21;25.67;;;15.33;;
56511;SDS011;42408;53.238;5.686;2024-03-22T07:45:47;27.33;;;16.07;;
56511;SDS011;42408;53.238;5.686;2024-03-22T07:48:13;24.60;;;15.83;;
56511;SDS011;42408;53.238;5.686;2024-03-22T07:50:38;27.33;;;15.67;;
56511;SDS011;42408;53.238;5.686;2024-03-22T07:53:04;24.07;;;14.20;;
56511;SDS011;42408;53.238;5.686;2024-03-22T07:55:30;25.57;;;16.20;;
56511;SDS011;42408;53.238;5.686;2024-03-22T07:57:55;25.30;;;15.77;;
56511;SDS011;42408;53.238;5.686;2024-03-22T08:02:50;27.90;;;16.98;;
56511;SDS011;42408;53.238;5.686;2024-03-22T08:05:19;28.38;;;15.00;;
56511;SDS011;42408;53.238;5.686;2024-03-22T08:07:45;29.53;;;15.33;;
56511;SDS011;42408;53.238;5.686;2024-03-22T08:10:10;28.07;;;15.97;;
56511;SDS011;42408;53.238;5.686;2024-03-22T08:12:36;26.23;;;15.63;;
56511;SDS011;42408;53.238;5.686;2024-03-22T08:15:02;26.13;;;14.97;;
56511;SDS011;42408;53.238;5.686;2024-03-22T08:17:28;29.60;;;15.73;;
56511;SDS011;42408;53.238;5.686;2024-03-22T08:19:53;29.33;;;16.13;;
56511;SDS011;42408;53.238;5.686;2024-03-22T08:22:19;29.23;;;16.90;;
56511;SDS011;42408;53.238;5.686;2024-03-22T08:24:45;26.40;;;16.77;;
56511;SDS011;42408;53.238;5.686;2024-03-22T08:27:10;32.53;;;18.33;;
56511;SDS011;42408;53.238;5.686;2024-03-22T08:29:36;29.70;;;17.53;;
56511;SDS011;42408;53.238;5.686;2024-03-22T08:32:02;31.40;;;17.95;;
56511;SDS011;42408;53.238;5.686;2024-03-22T08:36:58;32.13;;;16.75;;
56511;SDS011;42408;53.238;5.686;2024-03-22T08:39:24;31.58;;;17.10;;
56511;SDS011;42408;53.238;5.686;2024-03-22T08:41:51;30.97;;;16.80;;
56511;SDS011;42408;53.238;5.686;2024-03-22T08:44:17;27.27;;;15.88;;
56511;SDS011;42408;53.238;5.686;2024-03-22T08:46:43;26.08;;;15.98;;
56511;SDS011;42408;53.238;5.686;2024-03-22T08:49:08;24.37;;;15.20;;
56511;SDS011;42408;53.238;5.686;2024-03-22T08:51:34;26.67;;;14.50;;
56511;SDS011;42408;53.238;5.686;2024-03-22T08:53:59;25.17;;;13.67;;
56511;SDS011;42408;53.238;5.686;2024-03-22T08:56:26;24.02;;;14.13;;
56511;SDS011;42408;53.238;5.686;2024-03-22T08:58:51;21.87;;;11.53;;
56511;SDS011;42408;53.238;5.686;2024-03-22T09:01:17;20.17;;;11.73;;
56511;SDS011;42408;53.238;5.686;2024-03-22T09:03:43;23.43;;;12.63;;
56511;SDS011;42408;53.238;5.686;2024-03-22T09:06:11;19.65;;;12.82;;
56511;SDS011;42408;53.238;5.686;2024-03-22T09:08:37;24.10;;;13.43;;
56511;SDS011;42408;53.238;5.686;2024-03-22T09:11:03;23.17;;;12.57;;
56511;SDS011;42408;53.238;5.686;2024-03-22T09:13:29;25.58;;;13.52;;
56511;SDS011;42408;53.238;5.686;2024-03-22T09:15:58;21.40;;;12.60;;
56511;SDS011;42408;53.238;5.686;2024-03-22T09:18:24;24.00;;;12.20;;
56511;SDS011;42408;53.238;5.686;2024-03-22T09:20:50;26.13;;;13.32;;
56511;SDS011;42408;53.238;5.686;2024-03-22T09:23:16;22.55;;;12.57;;
56511;SDS011;42408;53.238;5.686;2024-03-22T09:25:42;24.87;;;11.33;;
56511;SDS011;42408;53.238;5.686;2024-03-22T09:28:08;24.63;;;12.43;;
56511;SDS011;42408;53.238;5.686;2024-03-22T09:30:37;24.17;;;11.70;;
56511;SDS011;42408;53.238;5.686;2024-03-22T09:33:04;25.73;;;11.93;;
56511;SDS011;42408;53.238;5.686;2024-03-22T09:35:30;25.63;;;11.77;;
56511;SDS011;42408;53.238;5.686;2024-03-22T09:37:57;30.42;;;13.25;;
56511;SDS011;42408;53.238;5.686;2024-03-22T09:40:22;22.80;;;11.53;;
56511;SDS011;42408;53.238;5.686;2024-03-22T09:42:49;20.35;;;11.38;;
56511;SDS011;42408;53.238;5.686;2024-03-22T09:45:17;19.38;;;10.50;;
56511;SDS011;42408;53.238;5.686;2024-03-22T09:47:45;23.05;;;10.40;;
56511;SDS011;42408;53.238;5.686;2024-03-22T09:50:13;16.85;;;9.55;;
56511;SDS011;42408;53.238;5.686;2024-03-22T09:52:39;17.42;;;9.05;;
56511;SDS011;42408;53.238;5.686;2024-03-22T09:55:07;16.70;;;7.70;;
56511;SDS011;42408;53.238;5.686;2024-03-22T09:57:37;16.13;;;7.35;;
56511;SDS011;42408;53.238;5.686;2024-03-22T10:00:07;17.30;;;7.72;;
56511;SDS011;42408;53.238;5.686;2024-03-22T10:02:34;15.95;;;7.88;;
56511;SDS011;42408;53.238;5.686;2024-03-22T10:05:00;14.95;;;7.55;;
56511;SDS011;42408;53.238;5.686;2024-03-22T10:07:27;12.38;;;7.38;;
56511;SDS011;42408;53.238;5.686;2024-03-22T10:09:57;14.93;;;6.47;;
56511;SDS011;42408;53.238;5.686;2024-03-22T10:12:23;12.38;;;6.22;;
56511;SDS011;42408;53.238;5.686;2024-03-22T10:14:50;12.38;;;6.28;;
56511;SDS011;42408;53.238;5.686;2024-03-22T10:17:17;12.70;;;6.32;;
56511;SDS011;42408;53.238;5.686;2024-03-22T10:19:43;9.83;;;5.20;;
56511;SDS011;42408;53.238;5.686;2024-03-22T10:22:09;12.57;;;5.33;;
56511;SDS011;42408;53.238;5.686;2024-03-22T10:24:35;13.37;;;6.40;;
56511;SDS011;42408;53.238;5.686;2024-03-22T10:27:00;9.27;;;5.20;;
56511;SDS011;42408;53.238;5.686;2024-03-22T10:29:26;11.07;;;5.70;;
56511;SDS011;42408;53.238;5.686;2024-03-22T10:31:53;13.93;;;5.30;;
56511;SDS011;42408;53.238;5.686;2024-03-22T10:34:22;9.73;;;5.63;;
56511;SDS011;42408;53.238;5.686;2024-03-22T10:36:49;11.40;;;6.63;;
56511;SDS011;42408;53.238;5.686;2024-03-22T10:39:18;12.80;;;5.93;;
56511;SDS011;42408;53.238;5.686;2024-03-22T10:41:45;10.63;;;5.40;;
56511;SDS011;42408;53.238;5.686;2024-03-22T10:44:11;12.52;;;6.13;;
56511;SDS011;42408;53.238;5.686;2024-03-22T10:49:03;13.77;;;5.70;;
56511;SDS011;42408;53.238;5.686;2024-03-22T10:51:31;12.32;;;5.95;;
56511;SDS011;42408;53.238;5.686;2024-03-22T10:54:01;14.77;;;6.25;;
56511;SDS011;42408;53.238;5.686;2024-03-22T10:56:28;15.52;;;6.22;;
56511;SDS011;42408;53.238;5.686;2024-03-22T10:58:55;16.38;;;6.15;;
56511;SDS011;42408;53.238;5.686;2024-03-22T11:01:25;18.10;;;6.90;;
56511;SDS011;42408;53.238;5.686;2024-03-22T11:03:51;13.30;;;5.93;;
56511;SDS011;42408;53.238;5.686;2024-03-22T11:06:31;12.73;;;5.85;;
56511;SDS011;42408;53.238;5.686;2024-03-22T11:08:58;13.20;;;5.72;;
56511;SDS011;42408;53.238;5.686;2024-03-22T11:11:25;12.73;;;4.82;;
56511;SDS011;42408;53.238;5.686;2024-03-22T11:13:54;12.18;;;4.97;;
56511;SDS011;42408;53.238;5.686;2024-03-22T11:16:21;13.82;;;5.82;;
56511;SDS011;42408;53.238;5.686;2024-03-22T11:18:47;11.88;;;5.50;;
56511;SDS011;42408;53.238;5.686;2024-03-22T11:21:14;11.90;;;5.15;;
56511;SDS011;42408;53.238;5.686;2024-03-22T11:23:40;9.70;;;5.03;;
56511;SDS011;42408;53.238;5.686;2024-03-22T11:26:06;14.37;;;5.20;;
56511;SDS011;42408;53.238;5.686;2024-03-22T11:28:33;16.13;;;5.90;;
56511;SDS011;42408;53.238;5.686;2024-03-22T11:30:58;10.10;;;5.27;;
56511;SDS011;42408;53.238;5.686;2024-03-22T11:33:24;12.10;;;5.00;;
56511;SDS011;42408;53.238;5.686;2024-03-22T11:35:52;13.77;;;5.32;;
56511;SDS011;42408;53.238;5.686;2024-03-22T11:38:18;11.63;;;5.47;;
56511;SDS011;42408;53.238;5.686;2024-03-22T11:40:44;15.03;;;6.50;;
56511;SDS011;42408;53.238;5.686;2024-03-22T11:45:36;14.48;;;5.88;;
56511;SDS011;42408;53.238;5.686;2024-03-22T11:48:02;13.70;;;5.18;;
56511;SDS011;42408;53.238;5.686;2024-03-22T11:50:28;12.50;;;5.18;;
56511;SDS011;42408;53.238;5.686;2024-03-22T11:52:54;12.97;;;5.80;;
56511;SDS011;42408;53.238;5.686;2024-03-22T11:57:49;16.60;;;6.00;;
56511;SDS011;42408;53.238;5.686;2024-03-22T12:00:18;17.25;;;6.72;;
56511;SDS011;42408;53.238;5.686;2024-03-22T12:02:44;14.48;;;6.35;;
56511;SDS011;42408;53.238;5.686;2024-03-22T12:05:10;13.15;;;6.43;;
56511;SDS011;42408;53.238;5.686;2024-03-22T12:07:36;17.77;;;6.87;;
56511;SDS011;42408;53.238;5.686;2024-03-22T12:10:02;16.70;;;7.00;;
56511;SDS011;42408;53.238;5.686;2024-03-22T12:12:29;17.10;;;6.53;;
56511;SDS011;42408;53.238;5.686;2024-03-22T12:14:55;12.30;;;6.45;;
56511;SDS011;42408;53.238;5.686;2024-03-22T12:17:20;18.47;;;6.13;;
56511;SDS011;42408;53.238;5.686;2024-03-22T12:19:46;15.37;;;7.53;;
56511;SDS011;42408;53.238;5.686;2024-03-22T12:22:12;13.93;;;6.47;;
56511;SDS011;42408;53.238;5.686;2024-03-22T12:24:38;14.90;;;6.97;;
56511;SDS011;42408;53.238;5.686;2024-03-22T12:27:04;18.70;;;5.80;;
56511;SDS011;42408;53.238;5.686;2024-03-22T12:29:32;16.87;;;6.60;;
56511;SDS011;42408;53.238;5.686;2024-03-22T12:31:58;16.77;;;5.90;;
56511;SDS011;42408;53.238;5.686;2024-03-22T12:34:28;16.50;;;5.70;;
56511;SDS011;42408;53.238;5.686;2024-03-22T12:36:58;16.45;;;5.13;;
56511;SDS011;42408;53.238;5.686;2024-03-22T12:39:24;11.48;;;4.55;;
56511;SDS011;42408;53.238;5.686;2024-03-22T12:41:50;15.77;;;5.17;;
56511;SDS011;42408;53.238;5.686;2024-03-22T12:44:16;15.13;;;5.40;;
56511;SDS011;42408;53.238;5.686;2024-03-22T12:46:42;16.03;;;5.00;;
56511;SDS011;42408;53.238;5.686;2024-03-22T12:49:09;14.63;;;5.15;;
56511;SDS011;42408;53.238;5.686;2024-03-22T12:51:35;13.03;;;5.57;;
56511;SDS011;42408;53.238;5.686;2024-03-22T12:54:02;15.50;;;5.00;;
56511;SDS011;42408;53.238;5.686;2024-03-22T12:56:28;18.58;;;4.97;;
56511;SDS011;42408;53.238;5.686;2024-03-22T12:58:54;22.83;;;6.47;;
56511;SDS011;42408;53.238;5.686;2024-03-22T13:01:19;20.60;;;7.67;;
56511;SDS011;42408;53.238;5.686;2024-03-22T13:03:45;17.00;;;5.20;;
56511;SDS011;42408;53.238;5.686;2024-03-22T13:06:11;17.10;;;5.20;;
56511;SDS011;42408;53.238;5.686;2024-03-22T13:08:37;16.07;;;5.30;;
56511;SDS011;42408;53.238;5.686;2024-03-22T13:11:03;14.35;;;5.18;;
56511;SDS011;42408;53.238;5.686;2024-03-22T13:13:29;23.42;;;6.30;;
56511;SDS011;42408;53.238;5.686;2024-03-22T13:15:58;17.67;;;6.80;;
56511;SDS011;42408;53.238;5.686;2024-03-22T13:18:24;15.10;;;5.57;;
56511;SDS011;42408;53.238;5.686;2024-03-22T13:20:49;13.27;;;5.17;;
56511;SDS011;42408;53.238;5.686;2024-03-22T13:23:15;13.60;;;4.87;;
56511;SDS011;42408;53.238;5.686;2024-03-22T13:25:41;21.07;;;6.23;;
56511;SDS011;42408;53.238;5.686;2024-03-22T13:28:06;16.23;;;5.50;;
56511;SDS011;42408;53.238;5.686;2024-03-22T13:30:32;15.73;;;6.33;;
56511;SDS011;42408;53.238;5.686;2024-03-22T13:33:00;18.52;;;6.25;;
56511;SDS011;42408;53.238;5.686;2024-03-22T13:35:26;20.33;;;6.10;;
56511;SDS011;42408;53.238;5.686;2024-03-22T13:37:51;17.47;;;5.40;;
56511;SDS011;42408;53.238;5.686;2024-03-22T13:40:17;19.60;;;6.50;;
56511;SDS011;42408;53.238;5.686;2024-03-22T13:42:43;16.70;;;5.80;;
56511;SDS011;42408;53.238;5.686;2024-03-22T13:45:08;20.57;;;7.03;;
56511;SDS011;42408;53.238;5.686;2024-03-22T13:47:34;18.50;;;5.53;;
56511;SDS011;42408;53.238;5.686;2024-03-22T13:50:02;19.35;;;6.25;;
56511;SDS011;42408;53.238;5.686;2024-03-22T13:52:31;18.25;;;5.40;;
56511;SDS011;42408;53.238;5.686;2024-03-22T13:54:57;16.90;;;6.10;;
56511;SDS011;42408;53.238;5.686;2024-03-22T13:57:25;21.65;;;5.75;;
56511;SDS011;42408;53.238;5.686;2024-03-22T13:59:51;19.85;;;6.57;;
56511;SDS011;42408;53.238;5.686;2024-03-22T14:02:16;17.23;;;6.10;;
56511;SDS011;42408;53.238;5.686;2024-03-22T14:04:42;16.27;;;5.30;;
56511;SDS011;42408;53.238;5.686;2024-03-22T14:07:08;16.30;;;5.23;;
56511;SDS011;42408;53.238;5.686;2024-03-22T14:09:34;16.23;;;5.63;;
56511;SDS011;42408;53.238;5.686;2024-03-22T14:14:27;17.77;;;5.70;;
56511;SDS011;42408;53.238;5.686;2024-03-22T14:16:53;18.63;;;5.50;;
56511;SDS011;42408;53.238;5.686;2024-03-22T14:19:19;20.27;;;5.80;;
56511;SDS011;42408;53.238;5.686;2024-03-22T14:21:45;23.70;;;6.13;;
56511;SDS011;42408;53.238;5.686;2024-03-22T14:24:11;21.60;;;5.32;;
56511;SDS011;42408;53.238;5.686;2024-03-22T14:26:37;17.07;;;5.07;;
56511;SDS011;42408;53.238;5.686;2024-03-22T14:29:07;15.18;;;5.47;;
56511;SDS011;42408;53.238;5.686;2024-03-22T14:31:36;18.38;;;5.78;;
56511;SDS011;42408;53.238;5.686;2024-03-22T14:34:02;20.63;;;6.40;;
56511;SDS011;42408;53.238;5.686;2024-03-22T14:36:28;23.98;;;5.82;;
56511;SDS011;42408;53.238;5.686;2024-03-22T14:38:54;19.87;;;5.13;;
56511;SDS011;42408;53.238;5.686;2024-03-22T14:41:20;13.83;;;5.03;;